EAG6528 SBEG-SCEL
Flight info
| Callsign | EAG6528 |
|---|---|
| Flight time | 3h 37m |
| Altitude | 34000 |
| Route | SUSNO UL322 ILTEG/N0486F360 UL322 VIR UW316 TAR DCT MUMUK UL322 EGIKA DCT ASIMO ASIMO7D |
| Aircraft | B77W/H-SDE1E2E3FGHIJ2J3J4J5M1RWXY/LB1D1 |
Departure
| Time | 2026-05-06 13:09 |
|---|---|
| Airport | Eduardo Gomes International Airport (SBEG) |
Arrival
| Time | 2026-05-06 16:47 |
|---|---|
| Airport | Comodoro Arturo Merino Benítez International Airport (SCEL) |
| Time | Latitude | Longitude | Altitude | Speed | Heading |
|---|---|---|---|---|---|
| 2026-05-06 12:52 | -3.03248 | -60.04412 | 277 ft | 0 kts | 347° |
| 2026-05-06 13:00 | -3.03251 | -60.04411 | 278 ft | 4 kts | 352° |
| 2026-05-06 13:00 | -3.03262 | -60.04407 | 278 ft | 4 kts | 343° |
| 2026-05-06 13:00 | -3.03288 | -60.04400 | 278 ft | 4 kts | 342° |
| 2026-05-06 13:00 | -3.03307 | -60.04394 | 278 ft | 4 kts | 310° |
| 2026-05-06 13:01 | -3.03314 | -60.04379 | 278 ft | 4 kts | 277° |
| 2026-05-06 13:01 | -3.03315 | -60.04363 | 278 ft | 4 kts | 233° |
| 2026-05-06 13:01 | -3.03301 | -60.04352 | 278 ft | 4 kts | 201° |
| 2026-05-06 13:01 | -3.03280 | -60.04344 | 278 ft | 0 kts | 211° |
| 2026-05-06 13:04 | -3.03281 | -60.04344 | 278 ft | 0 kts | 211° |
| 2026-05-06 13:04 | -3.03328 | -60.04388 | 278 ft | 18 kts | 243° |
| 2026-05-06 13:04 | -3.03346 | -60.04469 | 278 ft | 18 kts | 261° |
| 2026-05-06 13:05 | -3.03364 | -60.04589 | 278 ft | 17 kts | 262° |
| 2026-05-06 13:05 | -3.03349 | -60.04702 | 278 ft | 16 kts | 281° |
| 2026-05-06 13:05 | -3.03346 | -60.04808 | 278 ft | 15 kts | 238° |
| 2026-05-06 13:05 | -3.03434 | -60.04860 | 278 ft | 14 kts | 203° |
| 2026-05-06 13:06 | -3.03537 | -60.04932 | 278 ft | 13 kts | 230° |
| 2026-05-06 13:06 | -3.03568 | -60.04985 | 278 ft | 13 kts | 249° |
| 2026-05-06 13:06 | -3.03613 | -60.05126 | 278 ft | 30 kts | 255° |
| 2026-05-06 13:06 | -3.03666 | -60.05333 | 278 ft | 29 kts | 258° |
| 2026-05-06 13:07 | -3.03690 | -60.05518 | 278 ft | 26 kts | 269° |
| 2026-05-06 13:07 | -3.03692 | -60.05689 | 278 ft | 23 kts | 270° |
| 2026-05-06 13:07 | -3.03690 | -60.05848 | 278 ft | 22 kts | 270° |
| 2026-05-06 13:07 | -3.03691 | -60.05996 | 278 ft | 21 kts | 270° |
| 2026-05-06 13:08 | -3.03708 | -60.06137 | 278 ft | 20 kts | 234° |
| 2026-05-06 13:08 | -3.03833 | -60.06165 | 278 ft | 18 kts | 148° |
| 2026-05-06 13:08 | -3.03859 | -60.05992 | 278 ft | 56 kts | 89° |
| 2026-05-06 13:08 | -3.03858 | -60.05324 | 278 ft | 134 kts | 90° |
| 2026-05-06 13:09 | -3.03859 | -60.04177 | 331 ft | 189 kts | 90° |
| 2026-05-06 13:09 | -3.03866 | -60.02777 | 783 ft | 209 kts | 90° |
| 2026-05-06 13:09 | -3.03882 | -60.01286 | 1587 ft | 214 kts | 88° |
| 2026-05-06 13:09 | -3.03915 | -59.99821 | 2578 ft | 212 kts | 94° |
| 2026-05-06 13:10 | -3.04475 | -59.98408 | 3029 ft | 232 kts | 123° |
| 2026-05-06 13:10 | -3.05808 | -59.97417 | 3569 ft | 250 kts | 153° |
| 2026-05-06 13:10 | -3.07550 | -59.97209 | 4323 ft | 259 kts | 181° |
| 2026-05-06 13:10 | -3.09295 | -59.97686 | 5009 ft | 270 kts | 198° |
| 2026-05-06 13:11 | -3.11039 | -59.98443 | 5763 ft | 275 kts | 198° |
| 2026-05-06 13:11 | -3.12820 | -59.99186 | 6555 ft | 280 kts | 199° |
| 2026-05-06 13:11 | -3.14629 | -59.99943 | 7335 ft | 284 kts | 200° |
| 2026-05-06 13:11 | -3.16458 | -60.00710 | 8115 ft | 287 kts | 200° |
| 2026-05-06 13:12 | -3.18318 | -60.01492 | 8863 ft | 292 kts | 200° |
| 2026-05-06 13:12 | -3.20194 | -60.02281 | 9603 ft | 295 kts | 200° |
| 2026-05-06 13:12 | -3.22100 | -60.03083 | 10324 ft | 300 kts | 200° |
| 2026-05-06 13:12 | -3.24074 | -60.03915 | 10771 ft | 315 kts | 200° |
| 2026-05-06 13:13 | -3.26154 | -60.04791 | 11144 ft | 334 kts | 201° |
| 2026-05-06 13:13 | -3.28349 | -60.05716 | 11484 ft | 353 kts | 201° |
| 2026-05-06 13:13 | -3.30669 | -60.06694 | 11851 ft | 370 kts | 201° |
| 2026-05-06 13:13 | -3.33086 | -60.07713 | 12357 ft | 383 kts | 201° |
| 2026-05-06 13:14 | -3.35571 | -60.08761 | 12948 ft | 392 kts | 201° |
| 2026-05-06 13:14 | -3.38114 | -60.09834 | 13608 ft | 398 kts | 201° |
| 2026-05-06 13:14 | -3.40686 | -60.10918 | 14287 ft | 404 kts | 201° |
| 2026-05-06 13:14 | -3.43253 | -60.12001 | 14945 ft | 408 kts | 201° |
| 2026-05-06 13:15 | -3.45923 | -60.13128 | 15622 ft | 412 kts | 201° |
| 2026-05-06 13:15 | -3.48542 | -60.14232 | 16258 ft | 416 kts | 201° |
| 2026-05-06 13:15 | -3.51226 | -60.15365 | 16881 ft | 420 kts | 201° |
| 2026-05-06 13:15 | -3.53924 | -60.16503 | 17478 ft | 423 kts | 201° |
| 2026-05-06 13:16 | -3.56658 | -60.17657 | 18054 ft | 427 kts | 201° |
| 2026-05-06 13:16 | -3.59419 | -60.18822 | 18610 ft | 431 kts | 201° |
| 2026-05-06 13:16 | -3.62192 | -60.19992 | 19142 ft | 434 kts | 201° |
| 2026-05-06 13:16 | -3.64794 | -60.21090 | 19622 ft | 437 kts | 201° |
| 2026-05-06 13:17 | -3.67580 | -60.22265 | 20097 ft | 441 kts | 201° |
| 2026-05-06 13:17 | -3.70418 | -60.23463 | 20566 ft | 444 kts | 201° |
| 2026-05-06 13:17 | -3.73284 | -60.24673 | 21017 ft | 448 kts | 201° |
| 2026-05-06 13:17 | -3.76181 | -60.25896 | 21456 ft | 452 kts | 201° |
| 2026-05-06 13:18 | -3.79096 | -60.27127 | 21881 ft | 455 kts | 201° |
| 2026-05-06 13:18 | -3.82029 | -60.28366 | 22290 ft | 458 kts | 201° |
| 2026-05-06 13:18 | -3.84935 | -60.29593 | 22681 ft | 462 kts | 201° |
| 2026-05-06 13:18 | -3.87940 | -60.30863 | 23068 ft | 465 kts | 201° |
| 2026-05-06 13:19 | -3.90898 | -60.32112 | 23437 ft | 468 kts | 201° |
| 2026-05-06 13:19 | -3.93956 | -60.33281 | 23661 ft | 473 kts | 197° |
| 2026-05-06 13:19 | -3.97128 | -60.34255 | 23714 ft | 482 kts | 194° |
| 2026-05-06 13:19 | -4.00407 | -60.35122 | 23799 ft | 489 kts | 192° |
| 2026-05-06 13:20 | -4.03733 | -60.35902 | 23976 ft | 494 kts | 191° |
| 2026-05-06 13:20 | -4.07101 | -60.36637 | 24208 ft | 498 kts | 190° |
| 2026-05-06 13:20 | -4.10512 | -60.37379 | 24476 ft | 500 kts | 191° |
| 2026-05-06 13:20 | -4.13919 | -60.38140 | 24741 ft | 503 kts | 191° |
| 2026-05-06 13:21 | -4.17298 | -60.38909 | 25031 ft | 504 kts | 191° |
| 2026-05-06 13:21 | -4.20717 | -60.39695 | 25401 ft | 504 kts | 191° |
| 2026-05-06 13:21 | -4.24136 | -60.40485 | 25761 ft | 503 kts | 191° |
| 2026-05-06 13:21 | -4.27544 | -60.41275 | 26116 ft | 503 kts | 191° |
| 2026-05-06 13:22 | -4.30967 | -60.42068 | 26478 ft | 503 kts | 191° |
| 2026-05-06 13:22 | -4.34377 | -60.42860 | 26839 ft | 503 kts | 191° |
| 2026-05-06 13:22 | -4.37792 | -60.43653 | 27202 ft | 503 kts | 191° |
| 2026-05-06 13:22 | -4.41209 | -60.44447 | 27568 ft | 503 kts | 191° |
| 2026-05-06 13:23 | -4.44612 | -60.45238 | 27934 ft | 502 kts | 191° |
| 2026-05-06 13:23 | -4.47978 | -60.46021 | 28298 ft | 502 kts | 191° |
| 2026-05-06 13:23 | -4.51399 | -60.46816 | 28465 ft | 507 kts | 192° |
| 2026-05-06 13:24 | -4.58364 | -60.48436 | 28537 ft | 519 kts | 192° |
| 2026-05-06 13:24 | -4.65485 | -60.50093 | 28594 ft | 529 kts | 192° |
| 2026-05-06 13:25 | -4.72697 | -60.51771 | 28770 ft | 534 kts | 192° |
| 2026-05-06 13:25 | -4.76308 | -60.52611 | 29022 ft | 533 kts | 192° |
| 2026-05-06 13:25 | -4.79920 | -60.53452 | 29274 ft | 532 kts | 192° |
| 2026-05-06 13:25 | -4.83525 | -60.54291 | 29478 ft | 532 kts | 192° |
| 2026-05-06 13:26 | -4.87133 | -60.55131 | 29703 ft | 532 kts | 192° |
| 2026-05-06 13:26 | -4.90740 | -60.55971 | 29928 ft | 531 kts | 192° |
| 2026-05-06 13:26 | -4.94293 | -60.56798 | 30151 ft | 531 kts | 192° |
| 2026-05-06 13:26 | -4.97935 | -60.57646 | 30379 ft | 531 kts | 192° |
| 2026-05-06 13:27 | -5.01540 | -60.58486 | 30603 ft | 530 kts | 192° |
| 2026-05-06 13:27 | -5.05085 | -60.59311 | 30823 ft | 530 kts | 192° |
| 2026-05-06 13:27 | -5.08674 | -60.60148 | 31043 ft | 530 kts | 192° |
| 2026-05-06 13:27 | -5.12272 | -60.60986 | 31264 ft | 529 kts | 192° |
| 2026-05-06 13:28 | -5.15865 | -60.61823 | 31483 ft | 529 kts | 192° |
| 2026-05-06 13:28 | -5.19449 | -60.62658 | 31701 ft | 529 kts | 192° |
| 2026-05-06 13:28 | -5.23049 | -60.63497 | 31924 ft | 528 kts | 192° |
| 2026-05-06 13:28 | -5.26632 | -60.64332 | 32141 ft | 528 kts | 192° |
| 2026-05-06 13:29 | -5.30215 | -60.65168 | 32331 ft | 528 kts | 192° |
| 2026-05-06 13:29 | -5.33745 | -60.65990 | 32523 ft | 528 kts | 192° |
| 2026-05-06 13:29 | -5.37332 | -60.66826 | 32717 ft | 528 kts | 192° |
| 2026-05-06 13:29 | -5.40918 | -60.67663 | 32911 ft | 528 kts | 192° |
| 2026-05-06 13:30 | -5.44500 | -60.68498 | 33107 ft | 528 kts | 193° |
| 2026-05-06 13:30 | -5.48077 | -60.69333 | 33305 ft | 528 kts | 193° |
| 2026-05-06 13:30 | -5.51662 | -60.70170 | 33503 ft | 528 kts | 193° |
| 2026-05-06 13:30 | -5.55243 | -60.71006 | 33703 ft | 528 kts | 193° |
| 2026-05-06 13:31 | -5.58835 | -60.71844 | 33909 ft | 528 kts | 193° |
| 2026-05-06 13:31 | -5.62406 | -60.72678 | 34111 ft | 527 kts | 193° |
| 2026-05-06 13:31 | -5.65938 | -60.73504 | 34319 ft | 527 kts | 193° |
| 2026-05-06 13:31 | -5.69510 | -60.74341 | 34525 ft | 526 kts | 193° |
| 2026-05-06 13:32 | -5.73072 | -60.75176 | 34735 ft | 526 kts | 193° |
| 2026-05-06 13:32 | -5.76633 | -60.76011 | 34946 ft | 525 kts | 193° |
| 2026-05-06 13:32 | -5.80197 | -60.76846 | 35160 ft | 524 kts | 194° |
| 2026-05-06 13:32 | -5.83756 | -60.77681 | 35379 ft | 523 kts | 194° |
| 2026-05-06 13:33 | -5.87298 | -60.78512 | 35598 ft | 523 kts | 194° |
| 2026-05-06 13:33 | -5.90833 | -60.79341 | 35822 ft | 521 kts | 194° |
| 2026-05-06 13:33 | -5.94380 | -60.80173 | 36064 ft | 520 kts | 194° |
| 2026-05-06 13:34 | -6.01362 | -60.81809 | 36083 ft | 516 kts | 194° |
| 2026-05-06 13:34 | -6.08347 | -60.83448 | 36083 ft | 515 kts | 194° |
| 2026-05-06 13:35 | -6.15330 | -60.85087 | 36083 ft | 515 kts | 194° |
| 2026-05-06 13:35 | -6.22337 | -60.86733 | 36082 ft | 516 kts | 194° |
| 2026-05-06 13:36 | -6.29290 | -60.88366 | 36083 ft | 516 kts | 194° |
| 2026-05-06 13:36 | -6.36284 | -60.89977 | 36083 ft | 516 kts | 194° |
| 2026-05-06 13:37 | -6.43311 | -60.91552 | 36082 ft | 516 kts | 194° |
| 2026-05-06 13:37 | -6.50316 | -60.93131 | 36083 ft | 516 kts | 194° |
| 2026-05-06 13:38 | -6.57330 | -60.94714 | 36083 ft | 516 kts | 194° |
| 2026-05-06 13:38 | -6.64300 | -60.96290 | 36082 ft | 516 kts | 194° |
| 2026-05-06 13:39 | -6.71307 | -60.97871 | 36083 ft | 516 kts | 194° |
| 2026-05-06 13:39 | -6.78325 | -60.99457 | 36083 ft | 516 kts | 194° |
| 2026-05-06 13:40 | -6.85285 | -61.01031 | 36082 ft | 516 kts | 194° |
| 2026-05-06 13:40 | -6.92299 | -61.02618 | 36083 ft | 516 kts | 194° |
| 2026-05-06 13:41 | -6.99300 | -61.04202 | 36083 ft | 516 kts | 194° |
| 2026-05-06 13:41 | -7.06314 | -61.05789 | 36082 ft | 516 kts | 194° |
| 2026-05-06 13:42 | -7.13330 | -61.07378 | 36082 ft | 516 kts | 194° |
| 2026-05-06 13:42 | -7.20340 | -61.08965 | 36083 ft | 516 kts | 194° |
| 2026-05-06 13:43 | -7.27347 | -61.10553 | 36082 ft | 516 kts | 194° |
| 2026-05-06 13:43 | -7.34356 | -61.12142 | 36082 ft | 516 kts | 194° |
| 2026-05-06 13:44 | -7.41315 | -61.13719 | 36083 ft | 516 kts | 194° |
| 2026-05-06 13:44 | -7.48330 | -61.15310 | 36082 ft | 516 kts | 194° |
| 2026-05-06 13:45 | -7.55333 | -61.16897 | 36082 ft | 516 kts | 194° |
| 2026-05-06 13:45 | -7.65858 | -61.19287 | 36082 ft | 516 kts | 194° |
| 2026-05-06 13:46 | -7.72869 | -61.20880 | 36083 ft | 516 kts | 194° |
| 2026-05-06 13:46 | -7.79848 | -61.22465 | 36082 ft | 516 kts | 194° |
| 2026-05-06 13:47 | -7.86872 | -61.24063 | 36082 ft | 516 kts | 194° |
| 2026-05-06 13:47 | -7.93876 | -61.25658 | 36083 ft | 516 kts | 194° |
| 2026-05-06 13:48 | -8.00902 | -61.27258 | 36083 ft | 517 kts | 194° |
| 2026-05-06 13:48 | -8.07913 | -61.28854 | 36082 ft | 517 kts | 194° |
| 2026-05-06 13:49 | -8.14899 | -61.30445 | 36083 ft | 517 kts | 194° |
| 2026-05-06 13:49 | -8.21937 | -61.32051 | 36083 ft | 517 kts | 194° |
| 2026-05-06 13:50 | -8.28965 | -61.33654 | 36082 ft | 517 kts | 194° |
| 2026-05-06 13:50 | -8.35952 | -61.35248 | 36083 ft | 517 kts | 194° |
| 2026-05-06 13:51 | -8.42980 | -61.36849 | 36083 ft | 517 kts | 194° |
| 2026-05-06 13:51 | -8.50004 | -61.38447 | 36082 ft | 517 kts | 194° |
| 2026-05-06 13:52 | -8.55859 | -61.39780 | 36083 ft | 517 kts | 194° |
| 2026-05-06 13:52 | -8.62881 | -61.41380 | 36082 ft | 517 kts | 194° |
| 2026-05-06 13:53 | -8.69880 | -61.42975 | 36083 ft | 518 kts | 194° |
| 2026-05-06 13:53 | -8.76912 | -61.44576 | 36083 ft | 518 kts | 194° |
| 2026-05-06 13:54 | -8.83950 | -61.46180 | 36082 ft | 518 kts | 194° |
| 2026-05-06 13:54 | -8.90990 | -61.47784 | 36083 ft | 518 kts | 194° |
| 2026-05-06 13:55 | -8.98031 | -61.49391 | 36083 ft | 518 kts | 194° |
| 2026-05-06 13:55 | -9.05051 | -61.50994 | 36067 ft | 516 kts | 193° |
| 2026-05-06 13:56 | -9.12043 | -61.52592 | 36067 ft | 513 kts | 193° |
| 2026-05-06 13:56 | -9.18973 | -61.54174 | 36066 ft | 514 kts | 193° |
| 2026-05-06 13:57 | -9.25965 | -61.55748 | 36066 ft | 515 kts | 193° |
| 2026-05-06 13:57 | -9.32957 | -61.57323 | 36067 ft | 515 kts | 193° |
| 2026-05-06 13:58 | -9.39972 | -61.58906 | 36066 ft | 515 kts | 193° |
| 2026-05-06 13:58 | -9.46973 | -61.60489 | 36066 ft | 515 kts | 193° |
| 2026-05-06 13:59 | -9.53969 | -61.62070 | 36067 ft | 515 kts | 193° |
| 2026-05-06 13:59 | -9.60923 | -61.63642 | 36066 ft | 515 kts | 193° |
| 2026-05-06 14:00 | -9.67898 | -61.65323 | 36065 ft | 515 kts | 194° |
| 2026-05-06 14:00 | -9.74879 | -61.67025 | 36066 ft | 515 kts | 194° |
| 2026-05-06 14:01 | -9.81863 | -61.68721 | 36066 ft | 515 kts | 194° |
| 2026-05-06 14:01 | -9.88839 | -61.70416 | 36066 ft | 516 kts | 194° |
| 2026-05-06 14:02 | -9.95820 | -61.72114 | 36066 ft | 516 kts | 194° |
| 2026-05-06 14:02 | -10.02803 | -61.73814 | 36066 ft | 516 kts | 194° |
| 2026-05-06 14:03 | -10.09737 | -61.75502 | 36066 ft | 516 kts | 194° |
| 2026-05-06 14:03 | -10.16725 | -61.77201 | 36066 ft | 516 kts | 194° |
| 2026-05-06 14:04 | -10.23712 | -61.78902 | 36068 ft | 516 kts | 194° |
| 2026-05-06 14:04 | -10.30706 | -61.80606 | 36067 ft | 516 kts | 194° |
| 2026-05-06 14:05 | -10.37682 | -61.82307 | 36067 ft | 516 kts | 194° |
| 2026-05-06 14:05 | -10.44639 | -61.84003 | 36068 ft | 516 kts | 194° |
| 2026-05-06 14:06 | -10.51639 | -61.85711 | 36082 ft | 516 kts | 194° |
| 2026-05-06 14:06 | -10.58614 | -61.87413 | 36083 ft | 516 kts | 194° |
| 2026-05-06 14:07 | -10.65604 | -61.89120 | 36083 ft | 516 kts | 194° |
| 2026-05-06 14:07 | -10.72563 | -61.90821 | 36082 ft | 516 kts | 194° |
| 2026-05-06 14:08 | -10.79554 | -61.92531 | 36083 ft | 516 kts | 194° |
| 2026-05-06 14:08 | -10.86546 | -61.94242 | 36083 ft | 516 kts | 194° |
| 2026-05-06 14:09 | -10.93607 | -61.95666 | 36083 ft | 517 kts | 189° |
| 2026-05-06 14:09 | -11.00697 | -61.96625 | 36081 ft | 517 kts | 189° |
| 2026-05-06 14:10 | -11.07802 | -61.97786 | 36083 ft | 517 kts | 190° |
| 2026-05-06 14:10 | -11.14916 | -61.98939 | 36082 ft | 517 kts | 189° |
| 2026-05-06 14:11 | -11.22047 | -62.00075 | 36082 ft | 518 kts | 189° |
| 2026-05-06 14:11 | -11.29136 | -62.01202 | 36083 ft | 519 kts | 190° |
| 2026-05-06 14:12 | -11.36304 | -62.02342 | 36083 ft | 521 kts | 190° |
| 2026-05-06 14:12 | -11.43465 | -62.03480 | 36082 ft | 521 kts | 190° |
| 2026-05-06 14:13 | -11.50624 | -62.04618 | 36082 ft | 520 kts | 190° |
| 2026-05-06 14:13 | -11.57785 | -62.05759 | 36083 ft | 520 kts | 190° |
| 2026-05-06 14:14 | -11.64942 | -62.06901 | 36082 ft | 520 kts | 190° |
| 2026-05-06 14:14 | -11.72056 | -62.08035 | 36082 ft | 520 kts | 190° |
| 2026-05-06 14:15 | -11.79204 | -62.09234 | 36083 ft | 520 kts | 192° |
| 2026-05-06 14:15 | -11.86319 | -62.10631 | 36082 ft | 520 kts | 192° |
| 2026-05-06 14:16 | -11.93443 | -62.12003 | 36082 ft | 520 kts | 192° |
| 2026-05-06 14:16 | -12.00566 | -62.13356 | 36083 ft | 520 kts | 192° |
| 2026-05-06 14:17 | -12.07639 | -62.14700 | 36083 ft | 520 kts | 192° |
| 2026-05-06 14:17 | -12.14765 | -62.16056 | 36082 ft | 520 kts | 192° |
| 2026-05-06 14:18 | -12.21896 | -62.17413 | 36083 ft | 520 kts | 192° |
| 2026-05-06 14:18 | -12.29022 | -62.18770 | 36083 ft | 520 kts | 192° |
| 2026-05-06 14:19 | -12.36103 | -62.20119 | 36082 ft | 520 kts | 192° |
| 2026-05-06 14:19 | -12.43219 | -62.21475 | 36082 ft | 520 kts | 192° |
| 2026-05-06 14:20 | -12.50354 | -62.22834 | 36083 ft | 520 kts | 192° |
| 2026-05-06 14:20 | -12.57500 | -62.24198 | 36082 ft | 521 kts | 192° |
| 2026-05-06 14:21 | -12.64632 | -62.25561 | 36082 ft | 521 kts | 192° |
| 2026-05-06 14:21 | -12.71704 | -62.26912 | 36083 ft | 521 kts | 192° |
| 2026-05-06 14:22 | -12.78833 | -62.28277 | 36082 ft | 521 kts | 192° |
| 2026-05-06 14:22 | -12.85963 | -62.29641 | 36082 ft | 521 kts | 192° |
| 2026-05-06 14:23 | -12.93100 | -62.31007 | 36083 ft | 521 kts | 192° |
| 2026-05-06 14:23 | -13.00173 | -62.32363 | 36083 ft | 521 kts | 192° |
| 2026-05-06 14:24 | -13.07313 | -62.33734 | 36082 ft | 521 kts | 192° |
| 2026-05-06 14:24 | -13.14444 | -62.35103 | 36083 ft | 521 kts | 192° |
| 2026-05-06 14:25 | -13.21581 | -62.36413 | 36083 ft | 521 kts | 191° |
| 2026-05-06 14:25 | -13.28720 | -62.37663 | 36082 ft | 521 kts | 191° |
| 2026-05-06 14:26 | -13.35869 | -62.38931 | 36083 ft | 521 kts | 191° |
| 2026-05-06 14:26 | -13.42974 | -62.40196 | 36069 ft | 520 kts | 191° |
| 2026-05-06 14:27 | -13.50113 | -62.41463 | 36068 ft | 520 kts | 191° |
| 2026-05-06 14:27 | -13.57246 | -62.42735 | 36068 ft | 520 kts | 191° |
| 2026-05-06 14:28 | -13.64391 | -62.44010 | 36069 ft | 520 kts | 191° |
| 2026-05-06 14:28 | -13.71522 | -62.45283 | 36068 ft | 520 kts | 191° |
| 2026-05-06 14:29 | -13.78612 | -62.46545 | 36069 ft | 520 kts | 191° |
| 2026-05-06 14:29 | -13.85750 | -62.47807 | 36070 ft | 520 kts | 191° |
| 2026-05-06 14:30 | -13.92897 | -62.49074 | 36071 ft | 520 kts | 191° |
| 2026-05-06 14:30 | -14.00019 | -62.50338 | 36071 ft | 520 kts | 191° |
| 2026-05-06 14:31 | -14.07179 | -62.51609 | 36072 ft | 520 kts | 191° |
| 2026-05-06 14:31 | -14.14267 | -62.52865 | 36073 ft | 520 kts | 191° |
| 2026-05-06 14:32 | -14.21413 | -62.54133 | 36072 ft | 520 kts | 191° |
| 2026-05-06 14:32 | -14.28552 | -62.55402 | 36077 ft | 520 kts | 191° |
| 2026-05-06 14:33 | -14.35687 | -62.56671 | 36076 ft | 520 kts | 191° |
| 2026-05-06 14:33 | -14.42805 | -62.57938 | 36078 ft | 520 kts | 191° |
| 2026-05-06 14:34 | -14.49951 | -62.59211 | 36080 ft | 521 kts | 191° |
| 2026-05-06 14:34 | -14.57092 | -62.60484 | 36080 ft | 521 kts | 191° |
| 2026-05-06 14:35 | -14.64241 | -62.61759 | 36083 ft | 521 kts | 191° |
| 2026-05-06 14:35 | -14.71390 | -62.63035 | 36083 ft | 521 kts | 191° |
| 2026-05-06 14:36 | -14.78494 | -62.64301 | 36082 ft | 521 kts | 191° |
| 2026-05-06 14:36 | -14.85638 | -62.65578 | 36083 ft | 521 kts | 191° |
| 2026-05-06 14:37 | -14.92786 | -62.66858 | 36083 ft | 521 kts | 191° |
| 2026-05-06 14:37 | -14.99934 | -62.68137 | 36082 ft | 521 kts | 191° |
| 2026-05-06 14:38 | -15.07082 | -62.69414 | 36082 ft | 521 kts | 191° |
| 2026-05-06 14:38 | -15.14183 | -62.70670 | 36083 ft | 521 kts | 191° |
| 2026-05-06 14:39 | -15.21340 | -62.71939 | 36082 ft | 521 kts | 191° |
| 2026-05-06 14:39 | -15.28459 | -62.73203 | 36082 ft | 521 kts | 191° |
| 2026-05-06 14:40 | -15.34408 | -62.74260 | 36082 ft | 521 kts | 191° |
| 2026-05-06 14:40 | -15.41567 | -62.75530 | 36082 ft | 521 kts | 191° |
| 2026-05-06 14:41 | -15.48719 | -62.76800 | 36083 ft | 521 kts | 191° |
| 2026-05-06 14:41 | -15.55882 | -62.78073 | 36083 ft | 521 kts | 191° |
| 2026-05-06 14:42 | -15.62993 | -62.79339 | 36082 ft | 521 kts | 191° |
| 2026-05-06 14:42 | -15.70143 | -62.80613 | 36083 ft | 521 kts | 191° |
| 2026-05-06 14:43 | -15.77293 | -62.81887 | 36083 ft | 521 kts | 191° |
| 2026-05-06 14:43 | -15.84430 | -62.83160 | 36089 ft | 517 kts | 191° |
| 2026-05-06 14:44 | -15.91463 | -62.84416 | 36089 ft | 513 kts | 192° |
| 2026-05-06 14:45 | -16.01986 | -62.86295 | 36090 ft | 512 kts | 191° |
| 2026-05-06 14:45 | -16.09023 | -62.87553 | 36092 ft | 514 kts | 192° |
| 2026-05-06 14:46 | -16.16080 | -62.88817 | 36091 ft | 513 kts | 192° |
| 2026-05-06 14:46 | -16.23072 | -62.90070 | 36094 ft | 514 kts | 191° |
| 2026-05-06 14:47 | -16.30131 | -62.91335 | 36094 ft | 514 kts | 192° |
| 2026-05-06 14:47 | -16.37158 | -62.92576 | 36161 ft | 511 kts | 192° |
| 2026-05-06 14:48 | -16.44208 | -62.93815 | 36172 ft | 515 kts | 192° |
| 2026-05-06 14:48 | -16.51284 | -62.95060 | 36170 ft | 515 kts | 192° |
| 2026-05-06 14:49 | -16.58356 | -62.96307 | 36171 ft | 516 kts | 192° |
| 2026-05-06 14:49 | -16.65454 | -62.97559 | 36171 ft | 516 kts | 192° |
| 2026-05-06 14:50 | -16.72523 | -62.98803 | 36163 ft | 515 kts | 192° |
| 2026-05-06 14:50 | -16.79555 | -63.00043 | 36160 ft | 515 kts | 192° |
| 2026-05-06 14:51 | -16.86617 | -63.01290 | 36152 ft | 514 kts | 192° |
| 2026-05-06 14:51 | -16.93685 | -63.02540 | 36100 ft | 513 kts | 192° |
| 2026-05-06 14:52 | -17.00662 | -63.03774 | 36091 ft | 513 kts | 192° |
| 2026-05-06 14:52 | -17.07715 | -63.05023 | 36084 ft | 514 kts | 192° |
| 2026-05-06 14:53 | -17.14788 | -63.06277 | 36080 ft | 515 kts | 192° |
| 2026-05-06 14:53 | -17.21872 | -63.07533 | 36079 ft | 516 kts | 192° |
| 2026-05-06 14:54 | -17.28914 | -63.08783 | 36065 ft | 517 kts | 192° |
| 2026-05-06 14:54 | -17.36007 | -63.10040 | 36063 ft | 515 kts | 192° |
| 2026-05-06 14:55 | -17.43042 | -63.11291 | 36061 ft | 513 kts | 192° |
| 2026-05-06 14:55 | -17.50115 | -63.12550 | 36063 ft | 516 kts | 192° |
| 2026-05-06 14:56 | -17.57188 | -63.13811 | 36060 ft | 513 kts | 192° |
| 2026-05-06 14:56 | -17.64167 | -63.15165 | 36058 ft | 507 kts | 196° |
| 2026-05-06 14:57 | -17.70904 | -63.17164 | 36057 ft | 505 kts | 200° |
| 2026-05-06 14:57 | -17.77587 | -63.19436 | 36059 ft | 505 kts | 200° |
| 2026-05-06 14:58 | -17.84296 | -63.21634 | 36054 ft | 505 kts | 200° |
| 2026-05-06 14:58 | -17.91009 | -63.23785 | 36055 ft | 504 kts | 200° |
| 2026-05-06 14:59 | -17.97731 | -63.25925 | 36060 ft | 505 kts | 200° |
| 2026-05-06 14:59 | -18.04414 | -63.28047 | 36061 ft | 505 kts | 200° |
| 2026-05-06 15:00 | -18.11149 | -63.30190 | 36066 ft | 505 kts | 200° |
| 2026-05-06 15:00 | -18.17888 | -63.32338 | 36071 ft | 505 kts | 200° |
| 2026-05-06 15:01 | -18.24609 | -63.34481 | 36077 ft | 505 kts | 200° |
| 2026-05-06 15:01 | -18.31348 | -63.36632 | 36083 ft | 505 kts | 200° |
| 2026-05-06 15:02 | -18.38036 | -63.38768 | 36088 ft | 505 kts | 200° |
| 2026-05-06 15:02 | -18.44756 | -63.40916 | 36098 ft | 504 kts | 199° |
| 2026-05-06 15:03 | -18.51479 | -63.43067 | 36103 ft | 504 kts | 199° |
| 2026-05-06 15:03 | -18.58204 | -63.45221 | 36109 ft | 505 kts | 199° |
| 2026-05-06 15:04 | -18.64928 | -63.47371 | 36110 ft | 505 kts | 199° |
| 2026-05-06 15:04 | -18.71618 | -63.49517 | 36109 ft | 505 kts | 199° |
| 2026-05-06 15:05 | -18.78358 | -63.51683 | 36118 ft | 505 kts | 199° |
| 2026-05-06 15:05 | -18.85080 | -63.53844 | 36124 ft | 506 kts | 199° |
| 2026-05-06 15:06 | -18.91782 | -63.56000 | 36127 ft | 506 kts | 199° |
| 2026-05-06 15:06 | -18.98525 | -63.58127 | 36128 ft | 506 kts | 199° |
| 2026-05-06 15:07 | -19.05279 | -63.60256 | 36114 ft | 506 kts | 199° |
| 2026-05-06 15:07 | -19.12028 | -63.62390 | 36115 ft | 505 kts | 199° |
| 2026-05-06 15:08 | -19.18773 | -63.64525 | 36096 ft | 506 kts | 199° |
| 2026-05-06 15:08 | -19.25518 | -63.66660 | 36092 ft | 505 kts | 199° |
| 2026-05-06 15:09 | -19.32256 | -63.68789 | 36092 ft | 505 kts | 199° |
| 2026-05-06 15:09 | -19.38962 | -63.70914 | 36077 ft | 506 kts | 199° |
| 2026-05-06 15:10 | -19.45698 | -63.73051 | 36077 ft | 505 kts | 199° |
| 2026-05-06 15:10 | -19.52442 | -63.75193 | 36074 ft | 505 kts | 199° |
| 2026-05-06 15:11 | -19.59188 | -63.77338 | 36073 ft | 505 kts | 199° |
| 2026-05-06 15:11 | -19.65884 | -63.79463 | 36075 ft | 505 kts | 199° |
| 2026-05-06 15:12 | -19.72622 | -63.81610 | 36067 ft | 506 kts | 199° |
| 2026-05-06 15:12 | -19.79368 | -63.83762 | 36066 ft | 505 kts | 199° |
| 2026-05-06 15:13 | -19.86095 | -63.85910 | 36066 ft | 505 kts | 199° |
| 2026-05-06 15:13 | -19.92839 | -63.88063 | 36060 ft | 505 kts | 199° |
| 2026-05-06 15:14 | -19.99541 | -63.90189 | 36059 ft | 505 kts | 199° |
| 2026-05-06 15:14 | -20.06318 | -63.92336 | 36056 ft | 505 kts | 199° |
| 2026-05-06 15:15 | -20.13046 | -63.94473 | 36056 ft | 505 kts | 199° |
| 2026-05-06 15:15 | -20.19733 | -63.96599 | 36056 ft | 504 kts | 199° |
| 2026-05-06 15:16 | -20.26466 | -63.98741 | 36055 ft | 504 kts | 199° |
| 2026-05-06 15:16 | -20.33202 | -64.00882 | 36055 ft | 504 kts | 199° |
| 2026-05-06 15:17 | -20.39891 | -64.03003 | 36056 ft | 504 kts | 199° |
| 2026-05-06 15:17 | -20.46615 | -64.05146 | 36055 ft | 504 kts | 199° |
| 2026-05-06 15:18 | -20.53346 | -64.07296 | 36054 ft | 504 kts | 199° |
| 2026-05-06 15:18 | -20.60073 | -64.09446 | 36055 ft | 504 kts | 199° |
| 2026-05-06 15:19 | -20.66801 | -64.11598 | 36055 ft | 504 kts | 199° |
| 2026-05-06 15:19 | -20.73532 | -64.13732 | 36054 ft | 504 kts | 199° |
| 2026-05-06 15:20 | -20.80214 | -64.15854 | 36054 ft | 504 kts | 199° |
| 2026-05-06 15:20 | -20.86941 | -64.17994 | 36054 ft | 504 kts | 199° |
| 2026-05-06 15:21 | -20.93669 | -64.20136 | 36053 ft | 504 kts | 200° |
| 2026-05-06 15:21 | -21.00397 | -64.22278 | 36053 ft | 504 kts | 199° |
| 2026-05-06 15:22 | -21.07126 | -64.24413 | 36054 ft | 504 kts | 199° |
| 2026-05-06 15:22 | -21.13808 | -64.26542 | 36053 ft | 504 kts | 200° |
| 2026-05-06 15:23 | -21.20525 | -64.28689 | 36053 ft | 504 kts | 200° |
| 2026-05-06 15:23 | -21.27242 | -64.30839 | 36053 ft | 504 kts | 200° |
| 2026-05-06 15:24 | -21.33961 | -64.32989 | 36053 ft | 504 kts | 200° |
| 2026-05-06 15:24 | -21.40676 | -64.35125 | 36053 ft | 504 kts | 199° |
| 2026-05-06 15:25 | -21.47409 | -64.37252 | 36092 ft | 504 kts | 200° |
| 2026-05-06 15:25 | -21.54152 | -64.39390 | 36113 ft | 507 kts | 200° |
| 2026-05-06 15:26 | -21.60930 | -64.41542 | 36121 ft | 509 kts | 200° |
| 2026-05-06 15:26 | -21.67736 | -64.43705 | 36107 ft | 511 kts | 200° |
| 2026-05-06 15:27 | -21.74571 | -64.45870 | 36126 ft | 512 kts | 200° |
| 2026-05-06 15:27 | -21.81367 | -64.48030 | 36128 ft | 513 kts | 200° |
| 2026-05-06 15:28 | -21.88226 | -64.50213 | 36118 ft | 513 kts | 200° |
| 2026-05-06 15:28 | -21.93917 | -64.52022 | 36121 ft | 513 kts | 200° |
| 2026-05-06 15:29 | -22.00762 | -64.54204 | 36110 ft | 512 kts | 200° |
| 2026-05-06 15:29 | -22.07587 | -64.56386 | 36107 ft | 511 kts | 200° |
| 2026-05-06 15:30 | -22.14408 | -64.58569 | 36102 ft | 510 kts | 200° |
| 2026-05-06 15:30 | -22.21161 | -64.60730 | 36093 ft | 508 kts | 200° |
| 2026-05-06 15:31 | -22.27950 | -64.62932 | 36093 ft | 508 kts | 200° |
| 2026-05-06 15:31 | -22.34715 | -64.65139 | 36086 ft | 508 kts | 200° |
| 2026-05-06 15:32 | -22.44856 | -64.68449 | 36083 ft | 506 kts | 200° |
| 2026-05-06 15:32 | -22.51563 | -64.70642 | 36078 ft | 507 kts | 200° |
| 2026-05-06 15:33 | -22.58309 | -64.72842 | 36064 ft | 505 kts | 200° |
| 2026-05-06 15:33 | -22.65034 | -64.75038 | 36061 ft | 503 kts | 200° |
| 2026-05-06 15:34 | -22.71740 | -64.77227 | 36055 ft | 503 kts | 200° |
| 2026-05-06 15:34 | -22.78460 | -64.79431 | 36054 ft | 503 kts | 200° |
| 2026-05-06 15:35 | -22.85117 | -64.81618 | 36053 ft | 503 kts | 200° |
| 2026-05-06 15:35 | -22.91826 | -64.83824 | 36053 ft | 503 kts | 200° |
| 2026-05-06 15:36 | -22.98530 | -64.86031 | 36054 ft | 503 kts | 200° |
| 2026-05-06 15:36 | -23.05238 | -64.88239 | 36055 ft | 503 kts | 200° |
| 2026-05-06 15:37 | -23.11938 | -64.90449 | 36056 ft | 504 kts | 200° |
| 2026-05-06 15:37 | -23.18655 | -64.92669 | 36056 ft | 504 kts | 200° |
| 2026-05-06 15:38 | -23.25366 | -64.94889 | 36065 ft | 504 kts | 200° |
| 2026-05-06 15:38 | -23.32094 | -64.97112 | 36069 ft | 506 kts | 200° |
| 2026-05-06 15:39 | -23.38842 | -64.99338 | 36072 ft | 506 kts | 200° |
| 2026-05-06 15:39 | -23.45524 | -65.01548 | 36029 ft | 503 kts | 201° |
| 2026-05-06 15:40 | -23.52188 | -65.03759 | 36024 ft | 498 kts | 201° |
| 2026-05-06 15:40 | -23.58812 | -65.05957 | 36025 ft | 498 kts | 202° |
| 2026-05-06 15:41 | -23.65461 | -65.08168 | 36025 ft | 499 kts | 202° |
| 2026-05-06 15:41 | -23.72112 | -65.10382 | 36023 ft | 500 kts | 202° |
| 2026-05-06 15:42 | -23.78756 | -65.12594 | 36012 ft | 498 kts | 202° |
| 2026-05-06 15:42 | -23.85380 | -65.14804 | 36010 ft | 498 kts | 203° |
| 2026-05-06 15:43 | -23.92005 | -65.17015 | 36013 ft | 498 kts | 203° |
| 2026-05-06 15:43 | -23.98593 | -65.19217 | 36004 ft | 497 kts | 203° |
| 2026-05-06 15:44 | -24.05208 | -65.21430 | 36007 ft | 497 kts | 203° |
| 2026-05-06 15:44 | -24.11819 | -65.23643 | 35996 ft | 497 kts | 203° |
| 2026-05-06 15:45 | -24.18424 | -65.25858 | 35992 ft | 495 kts | 204° |
| 2026-05-06 15:45 | -24.25014 | -65.28070 | 35991 ft | 495 kts | 204° |
| 2026-05-06 15:46 | -24.31579 | -65.30275 | 35985 ft | 496 kts | 204° |
| 2026-05-06 15:46 | -24.38180 | -65.32496 | 35993 ft | 496 kts | 204° |
| 2026-05-06 15:47 | -24.44786 | -65.34721 | 36006 ft | 498 kts | 203° |
| 2026-05-06 15:47 | -24.51431 | -65.36961 | 36018 ft | 500 kts | 203° |
| 2026-05-06 15:48 | -24.58101 | -65.39206 | 36044 ft | 502 kts | 202° |
| 2026-05-06 15:48 | -24.64806 | -65.41471 | 36086 ft | 504 kts | 202° |
| 2026-05-06 15:49 | -24.71524 | -65.43745 | 36105 ft | 506 kts | 202° |
| 2026-05-06 15:49 | -24.78274 | -65.46029 | 36053 ft | 507 kts | 204° |
| 2026-05-06 15:50 | -24.84833 | -65.48443 | 36026 ft | 494 kts | 211° |
| 2026-05-06 15:50 | -24.90890 | -65.51863 | 36022 ft | 485 kts | 217° |
| 2026-05-06 15:51 | -24.96666 | -65.55626 | 36020 ft | 480 kts | 218° |
| 2026-05-06 15:51 | -25.02397 | -65.59344 | 36017 ft | 476 kts | 218° |
| 2026-05-06 15:52 | -25.08115 | -65.63021 | 36017 ft | 476 kts | 218° |
| 2026-05-06 15:52 | -25.13850 | -65.66702 | 36016 ft | 477 kts | 218° |
| 2026-05-06 15:53 | -25.19575 | -65.70360 | 36013 ft | 478 kts | 217° |
| 2026-05-06 15:53 | -25.25318 | -65.74039 | 36013 ft | 477 kts | 217° |
| 2026-05-06 15:54 | -25.31068 | -65.77732 | 36017 ft | 478 kts | 217° |
| 2026-05-06 15:54 | -25.36829 | -65.81437 | 36017 ft | 478 kts | 217° |
| 2026-05-06 15:55 | -25.42554 | -65.85110 | 36017 ft | 478 kts | 217° |
| 2026-05-06 15:55 | -25.48340 | -65.88843 | 36016 ft | 478 kts | 217° |
| 2026-05-06 15:56 | -25.54068 | -65.92547 | 36014 ft | 478 kts | 217° |
| 2026-05-06 15:56 | -25.59820 | -65.96269 | 36013 ft | 479 kts | 218° |
| 2026-05-06 15:57 | -25.65590 | -66.00004 | 36010 ft | 480 kts | 217° |
| 2026-05-06 15:57 | -25.71324 | -66.03714 | 36006 ft | 480 kts | 217° |
| 2026-05-06 15:58 | -25.77094 | -66.07457 | 36006 ft | 479 kts | 217° |
| 2026-05-06 15:58 | -25.82822 | -66.11178 | 36007 ft | 479 kts | 217° |
| 2026-05-06 15:59 | -25.88581 | -66.14924 | 36004 ft | 479 kts | 217° |
| 2026-05-06 15:59 | -25.94335 | -66.18674 | 36002 ft | 479 kts | 217° |
| 2026-05-06 16:00 | -26.00088 | -66.22429 | 36000 ft | 479 kts | 217° |
| 2026-05-06 16:00 | -26.05833 | -66.26182 | 35934 ft | 478 kts | 218° |
| 2026-05-06 16:01 | -26.11551 | -66.29902 | 35925 ft | 475 kts | 218° |
| 2026-05-06 16:01 | -26.17247 | -66.33616 | 35929 ft | 475 kts | 218° |
| 2026-05-06 16:02 | -26.22966 | -66.37356 | 35924 ft | 476 kts | 218° |
| 2026-05-06 16:02 | -26.28676 | -66.41097 | 35923 ft | 476 kts | 218° |
| 2026-05-06 16:03 | -26.34388 | -66.44844 | 35925 ft | 476 kts | 218° |
| 2026-05-06 16:03 | -26.40101 | -66.48596 | 35914 ft | 476 kts | 218° |
| 2026-05-06 16:04 | -26.45801 | -66.52344 | 35914 ft | 475 kts | 218° |
| 2026-05-06 16:04 | -26.51506 | -66.56086 | 35921 ft | 475 kts | 218° |
| 2026-05-06 16:05 | -26.57207 | -66.59842 | 35927 ft | 476 kts | 218° |
| 2026-05-06 16:05 | -26.62916 | -66.63615 | 35927 ft | 477 kts | 218° |
| 2026-05-06 16:06 | -26.68588 | -66.67368 | 35933 ft | 477 kts | 218° |
| 2026-05-06 16:06 | -26.74298 | -66.71146 | 35932 ft | 476 kts | 218° |
| 2026-05-06 16:07 | -26.80000 | -66.74925 | 35933 ft | 476 kts | 218° |
| 2026-05-06 16:07 | -26.85708 | -66.78712 | 35941 ft | 477 kts | 218° |
| 2026-05-06 16:08 | -26.91415 | -66.82506 | 35951 ft | 477 kts | 218° |
| 2026-05-06 16:08 | -26.97128 | -66.86310 | 35953 ft | 477 kts | 218° |
| 2026-05-06 16:09 | -27.02850 | -66.90125 | 35959 ft | 477 kts | 218° |
| 2026-05-06 16:09 | -27.14109 | -66.97606 | 35969 ft | 478 kts | 218° |
| 2026-05-06 16:10 | -27.25481 | -67.05196 | 35980 ft | 478 kts | 218° |
| 2026-05-06 16:10 | -27.36934 | -67.12866 | 35990 ft | 479 kts | 218° |
| 2026-05-06 16:11 | -27.48390 | -67.20557 | 36001 ft | 479 kts | 218° |
| 2026-05-06 16:11 | -27.59852 | -67.28271 | 36002 ft | 479 kts | 218° |
| 2026-05-06 16:12 | -27.71305 | -67.35997 | 36011 ft | 479 kts | 218° |
| 2026-05-06 16:12 | -27.82760 | -67.43745 | 36019 ft | 480 kts | 218° |
| 2026-05-06 16:13 | -27.92288 | -67.50185 | 36021 ft | 480 kts | 218° |
| 2026-05-06 16:13 | -28.03731 | -67.57972 | 36022 ft | 480 kts | 219° |
| 2026-05-06 16:14 | -28.15180 | -67.65777 | 35999 ft | 480 kts | 218° |
| 2026-05-06 16:14 | -28.26668 | -67.73499 | 36001 ft | 479 kts | 218° |
| 2026-05-06 16:15 | -28.38153 | -67.81214 | 35986 ft | 480 kts | 218° |
| 2026-05-06 16:15 | -28.49627 | -67.88982 | 35950 ft | 479 kts | 218° |
| 2026-05-06 16:16 | -28.60978 | -67.96683 | 35924 ft | 477 kts | 218° |
| 2026-05-06 16:16 | -28.72393 | -68.04451 | 35907 ft | 478 kts | 218° |
| 2026-05-06 16:17 | -28.83836 | -68.12266 | 35887 ft | 477 kts | 218° |
| 2026-05-06 16:17 | -28.95139 | -68.19973 | 35869 ft | 476 kts | 218° |
| 2026-05-06 16:18 | -29.06508 | -68.27749 | 35868 ft | 477 kts | 218° |
| 2026-05-06 16:18 | -29.17888 | -68.35566 | 35852 ft | 476 kts | 218° |
| 2026-05-06 16:19 | -29.29232 | -68.43374 | 35824 ft | 474 kts | 218° |
| 2026-05-06 16:19 | -29.40561 | -68.51185 | 35833 ft | 477 kts | 218° |
| 2026-05-06 16:20 | -29.51898 | -68.59048 | 35818 ft | 474 kts | 218° |
| 2026-05-06 16:20 | -29.62512 | -68.66495 | 35817 ft | 474 kts | 219° |
| 2026-05-06 16:21 | -29.73713 | -68.74524 | 35817 ft | 474 kts | 219° |
| 2026-05-06 16:21 | -29.84919 | -68.82554 | 35817 ft | 474 kts | 219° |
| 2026-05-06 16:22 | -29.96153 | -68.90558 | 35817 ft | 474 kts | 219° |
| 2026-05-06 16:22 | -30.07274 | -68.98535 | 35817 ft | 474 kts | 219° |
| 2026-05-06 16:23 | -30.18483 | -69.06604 | 35817 ft | 474 kts | 219° |
| 2026-05-06 16:23 | -30.29673 | -69.14681 | 35817 ft | 474 kts | 219° |
| 2026-05-06 16:24 | -30.40886 | -69.22797 | 35817 ft | 474 kts | 219° |
| 2026-05-06 16:24 | -30.52052 | -69.30901 | 35817 ft | 474 kts | 219° |
| 2026-05-06 16:25 | -30.63219 | -69.39028 | 35817 ft | 473 kts | 219° |
| 2026-05-06 16:25 | -30.74314 | -69.47125 | 35817 ft | 473 kts | 219° |
| 2026-05-06 16:26 | -30.85487 | -69.55302 | 35817 ft | 473 kts | 219° |
| 2026-05-06 16:26 | -30.96636 | -69.63484 | 35817 ft | 473 kts | 219° |
| 2026-05-06 16:27 | -31.07798 | -69.71697 | 35817 ft | 473 kts | 219° |
| 2026-05-06 16:27 | -31.18920 | -69.79899 | 35796 ft | 472 kts | 220° |
| 2026-05-06 16:28 | -31.29936 | -69.88058 | 35795 ft | 471 kts | 220° |
| 2026-05-06 16:28 | -31.41031 | -69.96293 | 35795 ft | 473 kts | 220° |
| 2026-05-06 16:29 | -31.52157 | -70.04572 | 34426 ft | 472 kts | 221° |
| 2026-05-06 16:29 | -31.57687 | -70.08696 | 33079 ft | 468 kts | 221° |
| 2026-05-06 16:29 | -31.63111 | -70.12742 | 31692 ft | 466 kts | 221° |
| 2026-05-06 16:30 | -31.67980 | -70.16366 | 30500 ft | 463 kts | 221° |
| 2026-05-06 16:30 | -31.69767 | -70.17706 | 30209 ft | 458 kts | 221° |
| 2026-05-06 16:30 | -31.73360 | -70.20405 | 29067 ft | 461 kts | 221° |
| 2026-05-06 16:30 | -31.76048 | -70.22425 | 28636 ft | 457 kts | 221° |
| 2026-05-06 16:31 | -31.78766 | -70.24468 | 28257 ft | 470 kts | 221° |
| 2026-05-06 16:31 | -31.81538 | -70.26552 | 27879 ft | 475 kts | 220° |
| 2026-05-06 16:31 | -31.84341 | -70.28661 | 27501 ft | 479 kts | 220° |
| 2026-05-06 16:31 | -31.87153 | -70.30775 | 27128 ft | 479 kts | 220° |
| 2026-05-06 16:32 | -31.89935 | -70.32865 | 26598 ft | 472 kts | 220° |
| 2026-05-06 16:32 | -31.92752 | -70.34888 | 25783 ft | 473 kts | 218° |
| 2026-05-06 16:32 | -31.95576 | -70.36865 | 25098 ft | 469 kts | 218° |
| 2026-05-06 16:32 | -31.98321 | -70.38810 | 24447 ft | 465 kts | 218° |
| 2026-05-06 16:33 | -32.01075 | -70.40781 | 23761 ft | 461 kts | 218° |
| 2026-05-06 16:33 | -32.03802 | -70.42741 | 23060 ft | 458 kts | 218° |
| 2026-05-06 16:33 | -32.06521 | -70.44697 | 22370 ft | 455 kts | 218° |
| 2026-05-06 16:34 | -32.11911 | -70.48574 | 21020 ft | 450 kts | 217° |
| 2026-05-06 16:34 | -32.14573 | -70.50491 | 20357 ft | 447 kts | 217° |
| 2026-05-06 16:34 | -32.17220 | -70.52390 | 19740 ft | 443 kts | 217° |
| 2026-05-06 16:34 | -32.19812 | -70.54257 | 19128 ft | 440 kts | 216° |
| 2026-05-06 16:35 | -32.22412 | -70.56135 | 18505 ft | 436 kts | 216° |
| 2026-05-06 16:35 | -32.24993 | -70.58000 | 17891 ft | 433 kts | 216° |
| 2026-05-06 16:35 | -32.27550 | -70.59847 | 17300 ft | 430 kts | 216° |
| 2026-05-06 16:35 | -32.30079 | -70.61676 | 17142 ft | 420 kts | 216° |
| 2026-05-06 16:36 | -32.32585 | -70.63485 | 16995 ft | 424 kts | 215° |
| 2026-05-06 16:36 | -32.35107 | -70.65306 | 16864 ft | 425 kts | 215° |
| 2026-05-06 16:36 | -32.37630 | -70.67135 | 16333 ft | 424 kts | 215° |
| 2026-05-06 16:36 | -32.40155 | -70.68967 | 15770 ft | 422 kts | 215° |
| 2026-05-06 16:37 | -32.42650 | -70.70776 | 15187 ft | 419 kts | 214° |
| 2026-05-06 16:37 | -32.45126 | -70.72575 | 14611 ft | 415 kts | 214° |
| 2026-05-06 16:37 | -32.47581 | -70.74351 | 14037 ft | 412 kts | 214° |
| 2026-05-06 16:37 | -32.49989 | -70.76099 | 13455 ft | 409 kts | 214° |
| 2026-05-06 16:38 | -32.52406 | -70.77858 | 12874 ft | 406 kts | 214° |
| 2026-05-06 16:38 | -32.54809 | -70.79597 | 12293 ft | 402 kts | 213° |
| 2026-05-06 16:38 | -32.57338 | -70.80952 | 12074 ft | 397 kts | 201° |
| 2026-05-06 16:38 | -32.60022 | -70.81668 | 11993 ft | 392 kts | 192° |
| 2026-05-06 16:39 | -32.62712 | -70.82098 | 11759 ft | 387 kts | 189° |
| 2026-05-06 16:39 | -32.65392 | -70.82235 | 11337 ft | 385 kts | 182° |
| 2026-05-06 16:39 | -32.68071 | -70.82099 | 10884 ft | 382 kts | 180° |
| 2026-05-06 16:39 | -32.70709 | -70.81911 | 10527 ft | 376 kts | 180° |
| 2026-05-06 16:40 | -32.73263 | -70.81780 | 10234 ft | 369 kts | 181° |
| 2026-05-06 16:40 | -32.78245 | -70.81623 | 9899 ft | 360 kts | 181° |
| 2026-05-06 16:40 | -32.83187 | -70.81431 | 9780 ft | 351 kts | 180° |
| 2026-05-06 16:40 | -32.88114 | -70.81249 | 9634 ft | 355 kts | 181° |
| 2026-05-06 16:41 | -32.92987 | -70.81159 | 9127 ft | 338 kts | 184° |
| 2026-05-06 16:41 | -32.97528 | -70.81715 | 8315 ft | 318 kts | 191° |
| 2026-05-06 16:41 | -33.01809 | -70.82539 | 7436 ft | 306 kts | 189° |
| 2026-05-06 16:41 | -33.04594 | -70.82700 | 6971 ft | 297 kts | 179° |
| 2026-05-06 16:42 | -33.08043 | -70.82083 | 6579 ft | 285 kts | 175° |
| 2026-05-06 16:42 | -33.10027 | -70.81826 | 6437 ft | 290 kts | 180° |
| 2026-05-06 16:42 | -33.12044 | -70.81695 | 6395 ft | 296 kts | 182° |
| 2026-05-06 16:42 | -33.14139 | -70.81601 | 5979 ft | 305 kts | 182° |
| 2026-05-06 16:43 | -33.16266 | -70.81497 | 5589 ft | 306 kts | 181° |
| 2026-05-06 16:43 | -33.18403 | -70.81385 | 5180 ft | 308 kts | 180° |
| 2026-05-06 16:43 | -33.20504 | -70.81273 | 4767 ft | 292 kts | 180° |
| 2026-05-06 16:43 | -33.22474 | -70.81168 | 4392 ft | 275 kts | 179° |
| 2026-05-06 16:44 | -33.24336 | -70.81068 | 4037 ft | 260 kts | 179° |
| 2026-05-06 16:44 | -33.26095 | -70.80973 | 3708 ft | 245 kts | 178° |
| 2026-05-06 16:44 | -33.27718 | -70.80885 | 3411 ft | 221 kts | 179° |
| 2026-05-06 16:44 | -33.29172 | -70.80807 | 3151 ft | 201 kts | 179° |
| 2026-05-06 16:45 | -33.30539 | -70.80734 | 2861 ft | 193 kts | 179° |
| 2026-05-06 16:45 | -33.31845 | -70.80664 | 2601 ft | 184 kts | 179° |
| 2026-05-06 16:45 | -33.33096 | -70.80597 | 2372 ft | 174 kts | 179° |
| 2026-05-06 16:45 | -33.34254 | -70.80534 | 2145 ft | 160 kts | 179° |
| 2026-05-06 16:46 | -33.35335 | -70.80476 | 1957 ft | 155 kts | 178° |
| 2026-05-06 16:46 | -33.36405 | -70.80418 | 1736 ft | 153 kts | 178° |
| 2026-05-06 16:46 | -33.37463 | -70.80359 | 1582 ft | 150 kts | 179° |
| 2026-05-06 16:46 | -33.38395 | -70.80310 | 1569 ft | 114 kts | 178° |
| 2026-05-06 16:47 | -33.39038 | -70.80274 | 1569 ft | 71 kts | 178° |
| 2026-05-06 16:47 | -33.39404 | -70.80257 | 1569 ft | 42 kts | 178° |
| 2026-05-06 16:47 | -33.39656 | -70.80251 | 1569 ft | 30 kts | 176° |
| 2026-05-06 16:47 | -33.39854 | -70.80227 | 1569 ft | 27 kts | 168° |
| 2026-05-06 16:48 | -33.40010 | -70.80122 | 1569 ft | 24 kts | 143° |
| 2026-05-06 16:48 | -33.40140 | -70.80008 | 1569 ft | 22 kts | 136° |
| 2026-05-06 16:48 | -33.40161 | -70.79863 | 1569 ft | 10 kts | 86° |
| 2026-05-06 16:48 | -33.40159 | -70.79792 | 1569 ft | 8 kts | 89° |
| 2026-05-06 16:49 | -33.40158 | -70.79725 | 1569 ft | 8 kts | 89° |
| 2026-05-06 16:49 | -33.40134 | -70.79697 | 1569 ft | 4 kts | 355° |
| 2026-05-06 16:49 | -33.40107 | -70.79700 | 1569 ft | 4 kts | 355° |
| 2026-05-06 16:49 | -33.40098 | -70.79700 | 1569 ft | 0 kts | 355° |
| 2026-05-06 16:50 | -33.40095 | -70.79701 | 1569 ft | 1 kts | 356° |
| 2026-05-06 16:50 | -33.40090 | -70.79701 | 1569 ft | 2 kts | 357° |
| 2026-05-06 16:50 | -33.40084 | -70.79701 | 1569 ft | 2 kts | 357° |
| 2026-05-06 16:50 | -33.40080 | -70.79702 | 1569 ft | 0 kts | 357° |